Colo, IA

11:05 AM CST on December 04, 2016 (GMT -0600)
Rural Marshall County | | Change Station

Elev 1000 ft 42.01 °N, 93.06 °W | Updated 14 minutes ago

Overcast
Overcast
34.1 °F
Feels Like 29 °F
N
6.0
Wind Variable Wind from East
Gusts 13.0 mph

Today
High -- | Low -- °F
--% Chance of Precip.
Yesterday
High -- | Low -- °F
Precip. -- in
Pressure 29.95 in
Visibility 4.0 miles
Clouds Overcast 400 ft
Windchill 29 °F
Dew Point 33 °F
Humidity 95%
Rainfall 0.09 in
Snow Depth Not available.
7:25 AM 4:41 PM
Waxing Crescent, 24% visible
SPECI KAMW 041701Z AUTO 21008KT 4SM BR OVC004 01/01 A2995 RMK AO2 T00060006
Pressure 29.95 in
Visibility 4.0 miles
Clouds Overcast 400 ft
Windchill 29 °F
Dew Point 33 °F
Humidity 95%
Rainfall 0.09 in
Snow Depth Not available.
7:25 AM 4:41 PM
Waxing Crescent, 24% visible
SPECI KAMW 041701Z AUTO 21008KT 4SM BR OVC004 01/01 A2995 RMK AO2 T00060006

10-Day Weather Forecast

Almanac

Astronomy

Dec. 04, 2016 Rise Set
Actual Time
Civil Twilight
Nautical Twilight
Astronomical Twilight
Moon
Length of Visible Light
Length of Day
Tomorrow will be .
, % of the Moon is Illuminated

Today's Extremes

State Highs State Lows

Community

WunderPhotos

Upload Photos

1,955,630 photos uploaded!

WunderBlog® & News

Nearby

Air Quality

  Air Quality AQ Index Pollutant
Not available.

Snow Depth

Station Depth Elevation

Earthquake Activity

City Distance Mag. Time & Date
Minimum magnitude displayed is 2.5.

Coastal Water Temperatures

Place Temperature

Stations

Nearby Weather Stations

Station Location Temp. Windchill Dew Point Humidity Wind Precip. Elev Updated Type
                   

Watches & Warnings

There are currently no watches in effect.